createdAt,value
2023-12-30T00:00:18.731Z,99611.66
2023-12-30T00:03:21.492Z,99612.84
2023-12-30T00:06:23.136Z,99604.88
2023-12-30T00:09:24.774Z,99601.53
2023-12-30T00:12:29.026Z,99588.97
2023-12-30T00:15:30.603Z,99602.72
2023-12-30T00:18:32.388Z,99586.47
2023-12-30T00:21:33.992Z,99569.53
2023-12-30T00:24:36.532Z,99568.69
2023-12-30T00:27:38.278Z,99585.13
2023-12-30T00:30:39.968Z,99588.88
2023-12-30T00:33:41.607Z,99596.13
2023-12-30T00:36:46.280Z,99595.28
2023-12-30T00:39:48.630Z,99596.13
2023-12-30T00:42:50.364Z,99596.50
2023-12-30T00:45:52.074Z,99605.47
2023-12-30T00:48:57.369Z,99581.25
2023-12-30T00:52:00.952Z,99596.69
2023-12-30T00:55:02.886Z,99612.06
2023-12-30T00:58:04.506Z,99617.84
2023-12-30T01:01:08.346Z,99616.66
2023-12-30T01:04:10.156Z,99619.72
2023-12-30T01:07:11.814Z,99612.63
2023-12-30T01:10:13.552Z,99620.94
2023-12-30T01:13:15.212Z,99620.94
2023-12-30T01:16:18.032Z,99625.50
2023-12-30T01:19:21.327Z,99635.50
2023-12-30T01:22:22.985Z,99645.47
2023-12-30T01:25:24.658Z,99643.81
2023-12-30T01:28:27.199Z,99624.00
2023-12-30T01:31:28.921Z,99635.84
2023-12-30T01:34:30.666Z,99643.13
2023-12-30T01:37:34.789Z,99641.25
2023-12-30T01:40:36.527Z,99647.88
2023-12-30T01:43:38.999Z,99646.19
2023-12-30T01:46:40.645Z,99660.78
2023-12-30T01:49:43.900Z,99665.16
2023-12-30T01:52:47.364Z,99665.16
2023-12-30T01:55:51.837Z,99669.75
2023-12-30T01:58:53.701Z,99673.47
2023-12-30T02:01:57.072Z,99677.88
2023-12-30T02:04:59.462Z,99675.53
2023-12-30T02:08:01.626Z,99685.50
2023-12-30T02:11:04.679Z,99683.66
2023-12-30T02:14:23.483Z,99704.31
2023-12-30T02:17:25.150Z,99698.41
2023-12-30T02:20:26.876Z,99698.41
2023-12-30T02:23:28.447Z,99698.56
2023-12-30T02:26:31.938Z,99704.81
2023-12-30T02:29:33.518Z,99709.56
2023-12-30T02:32:35.122Z,99715.84
2023-12-30T02:35:36.703Z,99715.16
2023-12-30T02:38:38.366Z,99721.44
2023-12-30T02:41:41.559Z,99722.25
2023-12-30T02:44:43.820Z,99715.16
2023-12-30T02:47:45.734Z,99717.88
2023-12-30T02:50:47.605Z,99718.03
2023-12-30T02:53:49.188Z,99720.75
2023-12-30T02:56:50.765Z,99731.59
2023-12-30T02:59:52.596Z,99723.66
2023-12-30T03:02:54.365Z,99730.91
2023-12-30T03:05:55.985Z,99737.34
2023-12-30T03:08:57.627Z,99739.22
2023-12-30T03:11:59.203Z,99753.78
2023-12-30T03:15:00.943Z,99743.97
2023-12-30T03:18:02.863Z,99751.25
2023-12-30T03:21:08.301Z,99760.22
2023-12-30T03:24:10.138Z,99765.78
2023-12-30T03:27:11.686Z,99764.97
2023-12-30T03:30:13.663Z,99762.25
2023-12-30T03:33:15.394Z,99771.41
2023-12-30T03:36:17.001Z,99778.69
2023-12-30T03:39:18.714Z,99778.69
2023-12-30T03:42:20.291Z,99779.69
2023-12-30T03:45:21.908Z,99778.00
2023-12-30T03:48:23.958Z,99781.56
2023-12-30T03:51:25.690Z,99785.28
2023-12-30T03:54:27.262Z,99795.25
2023-12-30T03:57:28.827Z,99805.25
2023-12-30T04:00:30.446Z,99814.22
2023-12-30T04:03:32.038Z,99809.00
2023-12-30T04:06:33.638Z,99818.81
2023-12-30T04:09:35.881Z,99807.13
2023-12-30T04:12:37.534Z,99805.44
2023-12-30T04:15:39.680Z,99800.03
2023-12-30T04:18:41.428Z,99805.59
2023-12-30T04:21:43.033Z,99809.34
2023-12-30T04:24:44.716Z,99813.03
2023-12-30T04:27:46.378Z,99814.91
2023-12-30T04:30:48.835Z,99810.53
2023-12-30T04:33:50.693Z,99808.81
2023-12-30T04:36:52.486Z,99817.13
2023-12-30T04:39:54.132Z,99813.53
2023-12-30T04:42:55.743Z,99819.16
2023-12-30T04:45:57.476Z,99820.16
2023-12-30T04:49:02.612Z,99823.88
2023-12-30T04:52:05.680Z,99827.44
2023-12-30T04:55:07.631Z,99823.03
2023-12-30T04:58:09.324Z,99835.06
2023-12-30T05:01:12.669Z,99831.31
2023-12-30T05:04:14.355Z,99835.06
2023-12-30T05:07:16.016Z,99831.50
2023-12-30T05:10:17.779Z,99833.34
2023-12-30T05:13:19.421Z,99834.38
2023-12-30T05:16:21.016Z,99837.09
2023-12-30T05:19:22.776Z,99831.81
2023-12-30T05:22:24.439Z,99842.66
2023-12-30T05:25:26.009Z,99846.38
2023-12-30T05:28:27.629Z,99856.38
2023-12-30T05:31:29.336Z,99853.66
2023-12-30T05:34:30.985Z,99871.78
2023-12-30T05:37:32.617Z,99875.50
2023-12-30T05:40:34.442Z,99860.28
2023-12-30T05:43:38.165Z,99876.50
2023-12-30T05:46:39.773Z,99865.84
2023-12-30T05:52:43.471Z,99879.38
2023-12-30T05:55:45.072Z,99884.09
2023-12-30T05:58:46.623Z,99881.41
2023-12-30T06:01:48.425Z,99887.84
2023-12-30T06:04:50.146Z,99885.13
2023-12-30T06:07:52.075Z,99897.84
2023-12-30T06:10:55.153Z,99914.91
2023-12-30T06:13:56.826Z,99914.22
2023-12-30T06:16:58.414Z,99919.66
2023-12-30T06:20:00.068Z,99927.75
2023-12-30T06:23:01.977Z,99917.97
2023-12-30T06:26:03.765Z,99934.22
2023-12-30T06:29:06.827Z,99933.38
2023-12-30T06:32:08.830Z,99942.47
2023-12-30T06:35:10.445Z,99938.09
2023-12-30T06:38:13.679Z,99942.63
2023-12-30T06:41:15.835Z,99943.63
2023-12-30T06:44:17.490Z,99950.91
2023-12-30T06:47:19.076Z,99946.34
2023-12-30T06:50:22.795Z,99959.03
2023-12-30T06:53:24.366Z,99955.47
2023-12-30T06:56:25.997Z,99959.19
2023-12-30T06:59:27.852Z,99964.59
2023-12-30T07:02:29.436Z,99973.75
2023-12-30T07:05:36.900Z,99970.19
2023-12-30T07:08:38.714Z,99981.88
2023-12-30T07:11:40.274Z,99986.44
2023-12-30T07:14:41.947Z,99989.28
2023-12-30T07:17:43.617Z,100001.81
2023-12-30T07:20:45.462Z,100000.13
2023-12-30T07:23:47.061Z,99996.56
2023-12-30T07:26:48.629Z,100008.41
2023-12-30T07:29:50.194Z,99995.88
2023-12-30T07:32:51.850Z,99992.16
2023-12-30T07:35:54.678Z,100001.16
2023-12-30T07:38:56.553Z,100000.44
2023-12-30T07:41:58.099Z,99998.59
2023-12-30T07:44:59.729Z,100002.00
2023-12-30T07:48:01.417Z,100002.69
2023-12-30T07:51:03.374Z,100009.63
2023-12-30T07:54:05.033Z,100025.44
2023-12-30T07:57:06.709Z,100030.50
2023-12-30T08:00:09.688Z,100027.31
2023-12-30T08:03:14.210Z,100025.28
2023-12-30T08:06:15.961Z,100020.41
2023-12-30T08:09:17.996Z,100029.88
2023-12-30T08:12:19.560Z,100025.00
2023-12-30T08:15:21.115Z,100027.38
2023-12-30T08:18:23.756Z,100019.75
2023-12-30T08:21:25.420Z,100021.13
2023-12-30T08:24:29.392Z,100018.94
2023-12-30T08:27:31.117Z,100028.44
2023-12-30T08:30:32.866Z,100029.97
2023-12-30T08:33:34.491Z,100033.19
2023-12-30T08:36:36.673Z,100032.19
2023-12-30T08:39:38.899Z,100039.97
2023-12-30T08:42:40.513Z,100050.47
2023-12-30T08:45:42.117Z,100047.63
2023-12-30T08:48:43.773Z,100047.63
2023-12-30T08:51:45.372Z,100051.03
2023-12-30T08:54:47.519Z,100059.81
2023-12-30T08:57:49.260Z,100052.56
2023-12-30T09:00:51.548Z,100071.53
2023-12-30T09:03:53.468Z,100068.81
2023-12-30T09:06:55.122Z,100068.81
2023-12-30T09:09:57.588Z,100070.50
2023-12-30T09:12:59.770Z,100086.59
2023-12-30T09:16:01.680Z,100087.44
2023-12-30T09:19:03.393Z,100098.78
2023-12-30T09:22:05.252Z,100104.06
2023-12-30T09:25:07.436Z,100116.44
2023-12-30T09:28:09.013Z,100114.56
2023-12-30T09:31:11.561Z,100114.41
2023-12-30T09:34:13.312Z,100116.09
2023-12-30T09:37:16.094Z,100133.38
2023-12-30T09:40:19.079Z,100119.84
2023-12-30T09:43:24.259Z,100136.94
2023-12-30T09:46:26.030Z,100123.53
2023-12-30T09:49:31.730Z,100123.41
2023-12-30T09:52:33.483Z,100128.81
2023-12-30T09:55:35.187Z,100126.94
2023-12-30T09:58:37.636Z,100131.19
2023-12-30T10:01:41.058Z,100142.03
2023-12-30T10:04:42.917Z,100128.31
2023-12-30T10:07:44.881Z,100127.31
2023-12-30T10:10:48.450Z,100122.56
2023-12-30T10:13:50.769Z,100122.72
2023-12-30T10:16:52.366Z,100124.59
2023-12-30T10:19:54.728Z,100122.72
2023-12-30T10:22:57.341Z,100113.75
2023-12-30T10:25:59.801Z,100126.47
2023-12-30T10:29:02.805Z,100124.75
2023-12-30T10:32:05.280Z,100131.03
2023-12-30T10:35:07.153Z,100125.63
2023-12-30T10:38:14.545Z,100126.28
2023-12-30T10:41:16.334Z,100124.44
2023-12-30T10:44:18.854Z,100126.97
2023-12-30T10:50:25.350Z,100111.38
2023-12-30T10:53:37.193Z,100132.91
2023-12-30T10:56:45.433Z,100122.06
2023-12-30T10:59:51.036Z,100127.50
2023-12-30T11:02:52.831Z,100128.34
2023-12-30T11:06:31.806Z,100137.09
2023-12-30T11:09:34.470Z,100128.34
2023-12-30T11:12:36.008Z,100149.59
2023-12-30T11:15:39.440Z,100143.53
2023-12-30T11:18:56.811Z,100136.28
2023-12-30T11:22:05.852Z,100151.16
2023-12-30T11:25:09.526Z,100139.91
2023-12-30T11:28:22.213Z,100135.97
2023-12-30T11:31:41.370Z,100146.31
2023-12-30T11:34:43.095Z,100140.34
2023-12-30T11:37:48.039Z,100140.31
2023-12-30T11:40:52.813Z,100142.28
2023-12-30T11:43:59.543Z,100135.31
2023-12-30T11:47:01.120Z,100136.03
2023-12-30T11:50:10.703Z,100129.63
2023-12-30T11:53:13.889Z,100128.84
2023-12-30T11:56:16.976Z,100136.00
2023-12-30T11:59:19.294Z,100139.56
2023-12-30T12:02:22.475Z,100130.13
2023-12-30T12:05:24.184Z,100121.16
2023-12-30T12:08:25.841Z,100117.13
2023-12-30T12:11:27.435Z,100117.47
2023-12-30T12:14:30.524Z,100119.66
2023-12-30T12:17:32.730Z,100117.50
2023-12-30T12:20:39.108Z,100118.84
2023-12-30T12:23:44.729Z,100126.13
2023-12-30T12:26:46.218Z,100106.31
2023-12-30T12:29:50.873Z,100109.88
2023-12-30T12:32:52.474Z,100105.63
2023-12-30T12:35:54.065Z,100113.06
2023-12-30T12:38:55.831Z,100115.78
2023-12-30T12:41:57.477Z,100114.09
2023-12-30T12:44:59.119Z,100105.28
2023-12-30T12:48:01.061Z,100105.97
2023-12-30T12:51:02.806Z,100093.59
2023-12-30T12:54:04.417Z,100096.16
2023-12-30T12:57:06.216Z,100090.72
2023-12-30T13:00:09.907Z,100090.72
2023-12-30T13:03:12.062Z,100091.56
2023-12-30T13:06:14.126Z,100094.44
2023-12-30T13:09:34.490Z,100095.44
2023-12-30T13:12:36.086Z,100109.84
2023-12-30T13:15:38.727Z,100090.03
2023-12-30T13:18:40.556Z,100094.44
2023-12-30T13:21:42.463Z,100096.28
2023-12-30T13:24:45.796Z,100100.69
2023-12-30T13:27:47.502Z,100094.44
2023-12-30T13:30:49.092Z,100097.97
2023-12-30T13:33:53.112Z,100098.84
2023-12-30T13:36:58.054Z,100096.16
2023-12-30T13:40:02.436Z,100098.84
2023-12-30T13:43:08.986Z,100103.25
2023-12-30T13:46:29.714Z,100102.06
2023-12-30T13:50:08.982Z,100104.28
2023-12-30T13:53:11.172Z,100121.38
2023-12-30T13:56:20.596Z,100115.13
2023-12-30T13:59:24.455Z,100105.13
2023-12-30T14:02:26.989Z,100108.69
2023-12-30T14:05:35.554Z,100115.13
2023-12-30T14:08:43.202Z,100108.81
2023-12-30T14:11:49.626Z,100115.63
2023-12-30T14:14:56.104Z,100114.28
2023-12-30T14:17:58.010Z,100114.44
2023-12-30T14:20:59.685Z,100108.88
2023-12-30T14:24:01.319Z,100107.84
2023-12-30T14:27:02.961Z,100109.53
2023-12-30T14:30:07.667Z,100110.22
2023-12-30T14:33:10.217Z,100107.69
2023-12-30T14:36:12.406Z,100115.81
2023-12-30T14:39:16.462Z,100119.38
2023-12-30T14:42:18.470Z,100118.34
2023-12-30T14:45:21.128Z,100126.47
2023-12-30T14:48:22.796Z,100129.88
2023-12-30T14:51:24.377Z,100123.44
2023-12-30T14:54:25.914Z,100120.72
2023-12-30T14:57:28.992Z,100124.13
2023-12-30T15:00:30.627Z,100119.53
2023-12-30T15:03:32.466Z,100129.22
2023-12-30T15:06:35.970Z,100134.63
2023-12-30T15:09:37.613Z,100140.06
2023-12-30T15:12:40.660Z,100142.78
2023-12-30T15:15:42.379Z,100145.47
2023-12-30T15:18:44.123Z,100130.94
2023-12-30T15:21:45.853Z,100126.34
2023-12-30T15:24:47.583Z,100141.59
2023-12-30T15:27:52.780Z,100137.19
2023-12-30T15:30:54.526Z,100133.44
2023-12-30T15:33:56.391Z,100138.75
2023-12-30T15:36:58.022Z,100145.72
2023-12-30T15:39:59.708Z,100137.72
2023-12-30T15:43:02.159Z,100139.44
2023-12-30T15:46:07.355Z,100141.97
2023-12-30T15:49:11.272Z,100138.25
2023-12-30T15:52:14.319Z,100139.94
2023-12-30T15:55:16.240Z,100127.41
2023-12-30T15:58:18.360Z,100124.69
2023-12-30T16:01:20.003Z,100128.41
2023-12-30T16:04:21.645Z,100133.69
2023-12-30T16:07:27.822Z,100137.06
2023-12-30T16:10:29.482Z,100129.28
2023-12-30T16:13:31.150Z,100134.53
2023-12-30T16:16:34.907Z,100130.81
2023-12-30T16:19:37.024Z,100131.66
2023-12-30T16:22:38.860Z,100130.63
2023-12-30T16:25:41.212Z,100127.91
2023-12-30T16:28:45.925Z,100134.19
2023-12-30T16:31:47.751Z,100134.19
2023-12-30T16:34:49.883Z,100125.19
2023-12-30T16:37:52.975Z,100126.91
2023-12-30T16:40:54.551Z,100131.31
2023-12-30T16:43:56.446Z,100122.16
2023-12-30T16:46:58.184Z,100128.25
2023-12-30T16:49:59.769Z,100130.81
2023-12-30T16:53:01.725Z,100132.34
2023-12-30T16:56:03.601Z,100127.75
2023-12-30T16:59:05.204Z,100130.47
2023-12-30T17:02:07.168Z,100126.72
2023-12-30T17:05:10.020Z,100129.28
2023-12-30T17:08:13.005Z,100130.13
2023-12-30T17:11:14.577Z,100122.00
2023-12-30T17:14:16.214Z,100123.72
2023-12-30T17:17:17.838Z,100121.16
2023-12-30T17:20:19.498Z,100128.25
2023-12-30T17:23:21.415Z,100128.25
2023-12-30T17:26:23.019Z,100125.53
2023-12-30T17:29:24.558Z,100120.13
2023-12-30T17:32:27.434Z,100119.13
2023-12-30T17:35:29.038Z,100123.53
2023-12-30T17:38:30.614Z,100102.84
2023-12-30T17:41:32.295Z,100118.09
2023-12-30T17:44:33.791Z,100109.94
2023-12-30T17:47:37.503Z,100100.81
2023-12-30T17:50:39.796Z,100106.25
2023-12-30T17:53:41.442Z,100108.97
2023-12-30T17:56:42.951Z,100114.38
2023-12-30T17:59:44.483Z,100108.97
2023-12-30T18:02:46.050Z,100109.78
2023-12-30T18:05:47.944Z,100103.19
2023-12-30T18:08:49.628Z,100107.59
2023-12-30T18:11:51.209Z,100101.31
2023-12-30T18:14:52.739Z,100107.44
2023-12-30T18:17:54.503Z,100103.69
2023-12-30T18:20:56.986Z,100100.97
2023-12-30T18:23:58.545Z,100096.38
2023-12-30T18:27:00.069Z,100090.97
2023-12-30T18:30:02.001Z,100095.53
2023-12-30T18:33:03.930Z,100090.97
2023-12-30T18:36:06.244Z,100089.97
2023-12-30T18:39:08.005Z,100093.66
2023-12-30T18:42:09.598Z,100093.50
2023-12-30T18:45:11.886Z,100105.22
2023-12-30T18:48:15.489Z,100097.91
2023-12-30T18:51:17.442Z,100093.50
2023-12-30T18:54:19.357Z,100094.34
2023-12-30T18:57:20.952Z,100092.47
2023-12-30T19:00:25.087Z,100084.34
2023-12-30T19:03:26.831Z,100086.06
2023-12-30T19:06:28.908Z,100084.19
2023-12-30T19:09:30.491Z,100082.31
2023-12-30T19:12:32.508Z,100083.16
2023-12-30T19:15:34.060Z,100084.88
2023-12-30T19:18:35.683Z,100081.13
2023-12-30T19:21:37.388Z,100074.50
2023-12-30T19:24:39.126Z,100065.38
2023-12-30T19:27:40.711Z,100061.78
2023-12-30T19:30:42.390Z,100067.19
2023-12-30T19:33:44.497Z,100054.81
2023-12-30T19:36:46.555Z,100059.25
2023-12-30T19:39:48.514Z,100054.16
2023-12-30T19:42:51.358Z,100054.16
2023-12-30T19:45:53.124Z,100055.34
2023-12-30T19:48:54.666Z,100048.06
2023-12-30T19:51:57.114Z,100051.63
2023-12-30T19:54:58.778Z,100045.16
2023-12-30T19:58:00.285Z,100053.28
2023-12-30T20:01:01.907Z,100047.88
2023-12-30T20:04:03.807Z,100053.28
2023-12-30T20:07:06.068Z,100052.31
2023-12-30T20:10:10.376Z,100046.03
2023-12-30T20:13:12.088Z,100033.66
2023-12-30T20:16:14.224Z,100043.47
2023-12-30T20:19:16.616Z,100038.03
2023-12-30T20:22:18.464Z,100038.72
2023-12-30T20:25:20.192Z,100037.00
2023-12-30T20:28:21.795Z,100030.59
2023-12-30T20:31:23.397Z,100026.00
2023-12-30T20:34:25.559Z,100023.97
2023-12-30T20:37:29.455Z,100026.84
2023-12-30T20:40:31.668Z,100032.28
2023-12-30T20:43:33.452Z,100040.41
2023-12-30T20:46:35.126Z,100033.31
2023-12-30T20:49:36.805Z,100029.75
2023-12-30T20:52:39.107Z,100026.00
2023-12-30T20:55:40.848Z,100029.41
2023-12-30T20:58:42.604Z,100027.69
2023-12-30T21:01:44.321Z,100024.97
2023-12-30T21:04:46.062Z,100019.53
2023-12-30T21:07:47.796Z,100015.00
2023-12-30T21:10:49.934Z,100015.81
2023-12-30T21:13:51.617Z,100014.13
2023-12-30T21:16:55.395Z,100015.00
2023-12-30T21:19:57.392Z,100012.28
2023-12-30T21:22:59.014Z,100009.56
2023-12-30T21:26:00.867Z,100011.25
2023-12-30T21:29:02.613Z,100010.22
2023-12-30T21:32:05.372Z,100003.78
2023-12-30T21:35:07.572Z,100001.22
2023-12-30T21:38:09.160Z,99993.09
2023-12-30T21:41:12.870Z,99997.66
2023-12-30T21:44:14.500Z,99988.69
2023-12-30T21:47:17.583Z,99985.13
2023-12-30T21:50:19.210Z,99976.13
2023-12-30T21:53:20.787Z,99972.75
2023-12-30T21:56:24.511Z,99964.63
2023-12-30T21:59:26.070Z,99954.94
2023-12-30T22:02:28.552Z,99963.09
2023-12-30T22:05:30.158Z,99951.56
2023-12-30T22:08:32.061Z,99950.72
2023-12-30T22:11:34.142Z,99949.00
2023-12-30T22:14:35.917Z,99950.03
2023-12-30T22:17:37.498Z,99945.63
2023-12-30T22:20:39.078Z,99945.97
2023-12-30T22:23:40.663Z,99937.81
2023-12-30T22:26:42.222Z,99938.03
2023-12-30T22:29:43.945Z,99939.03
2023-12-30T22:32:45.614Z,99936.31
2023-12-30T22:35:49.365Z,99934.63
2023-12-30T22:38:50.896Z,99931.06
2023-12-30T22:41:54.090Z,99929.34
2023-12-30T22:44:55.677Z,99924.97
2023-12-30T22:47:57.254Z,99922.41
2023-12-30T22:50:58.844Z,99924.44
2023-12-30T22:54:00.461Z,99928.19
2023-12-30T22:57:04.545Z,99929.22
2023-12-30T23:00:15.541Z,99927.34
2023-12-30T23:03:17.773Z,99915.13
2023-12-30T23:06:19.341Z,99907.84
2023-12-30T23:09:20.979Z,99917.00
2023-12-30T23:12:22.537Z,99909.22
2023-12-30T23:15:24.185Z,99898.53
2023-12-30T23:18:25.794Z,99898.06
2023-12-30T23:21:34.240Z,99902.44
2023-12-30T23:24:35.876Z,99902.91
2023-12-30T23:27:37.478Z,99893.09
2023-12-30T23:30:39.207Z,99888.88
2023-12-30T23:33:41.929Z,99889.72
2023-12-30T23:36:43.523Z,99891.75
2023-12-30T23:39:46.956Z,99891.09
2023-12-30T23:42:48.597Z,99886.50
2023-12-30T23:45:50.258Z,99886.66
2023-12-30T23:48:51.876Z,99876.00
2023-12-30T23:51:53.469Z,99867.00
2023-12-30T23:54:55.353Z,99859.06
2023-12-30T23:57:57.059Z,99839.25
